Time;durP1;ratioP1;P1;durP2;ratioP2;P2;SDS_P1;SDS_P2;PMS_P1;PMS_P2;Temp;Humidity;BMP_temperature;BMP_pressure;BME280_temperature;BME280_humidity;BME280_pressure;Samples;Min_cycle;Max_cycle;Signal;HPM_P1;HPM_P2
2022/11/25 00:00:26;;;;;;;12.48;4.60;;;;;;;6.17;74.89;100553.25;4182144;28;20040;-61
2022/11/25 00:02:29;;;;;;;17.48;5.70;;;;;;;6.16;75.42;100556.66;4189469;28;20047;-61
2022/11/25 00:04:35;;;;;;;13.90;5.78;;;;;;;6.25;74.94;100556.09;4187917;28;20059;-61
2022/11/25 00:06:39;;;;;;;11.75;5.50;;;;;;;6.22;75.12;100554.31;4193460;28;20138;-61
2022/11/25 00:08:43;;;;;;;12.60;4.70;;;;;;;6.23;75.72;100556.03;4191815;28;20058;-61
2022/11/25 00:10:46;;;;;;;13.02;4.93;;;;;;;6.23;75.88;100547.44;4185886;28;20491;-61
2022/11/25 00:12:48;;;;;;;14.45;4.85;;;;;;;6.28;75.35;100544.19;4181453;28;20118;-61
2022/11/25 00:14:52;;;;;;;8.98;4.00;;;;;;;6.29;75.73;100543.34;4185779;28;20098;-61
2022/11/25 00:16:55;;;;;;;17.63;4.82;;;;;;;6.31;75.72;100533.09;4185271;28;20037;-61
2022/11/25 00:18:58;;;;;;;13.07;4.80;;;;;;;6.32;75.61;100542.56;4180941;28;20040;-61
2022/11/25 00:21:07;;;;;;;12.18;4.65;;;;;;;6.34;75.89;100532.28;4181309;28;20091;-61
2022/11/25 00:23:10;;;;;;;10.73;4.47;;;;;;;6.33;75.71;100535.72;4189278;28;20036;-61
2022/11/25 00:25:13;;;;;;;13.93;4.82;;;;;;;6.38;75.86;100534.13;4179413;28;20071;-61
2022/11/25 00:27:16;;;;;;;12.40;3.88;;;;;;;6.38;75.90;100534.13;4183893;28;20624;-61
2022/11/25 00:29:19;;;;;;;11.68;4.68;;;;;;;6.40;75.72;100543.69;4190576;28;20033;-61
2022/11/25 00:31:24;;;;;;;14.48;8.13;;;;;;;6.34;75.75;100534.84;4193549;28;20571;-61
2022/11/25 00:33:27;;;;;;;;;;;;;;;6.26;75.43;100540.69;4183441;28;20115;-61
2022/11/25 00:35:29;;;;;;;17.60;9.13;;;;;;;6.29;75.87;100537.31;4186497;28;19924;-61
2022/11/25 00:37:34;;;;;;;15.95;7.95;;;;;;;6.33;75.36;100531.41;4181822;28;20063;-61
2022/11/25 00:39:39;;;;;;;15.82;7.15;;;;;;;6.33;75.84;100534.00;4182142;28;20043;-61
2022/11/25 00:46:24;;;;;;;11.52;4.93;;;;;;;6.29;75.64;100539.88;4192623;28;20037;-62
2022/11/25 00:48:27;;;;;;;14.93;4.50;;;;;;;6.35;75.39;100539.22;4189844;28;20037;-61
2022/11/25 00:50:30;;;;;;;10.25;4.22;;;;;;;6.39;75.19;100541.06;4168636;28;20041;-61
2022/11/25 00:52:35;;;;;;;11.93;4.30;;;;;;;6.44;75.01;100542.09;4171437;28;20037;-61
2022/11/25 00:54:38;;;;;;;9.60;3.72;;;;;;;6.42;75.52;100539.44;4174860;28;20110;-61
2022/11/25 00:56:41;;;;;;;15.43;5.05;;;;;;;6.46;75.18;100543.03;4189152;28;20499;-61
2022/11/25 00:58:44;;;;;;;13.02;4.85;;;;;;;6.45;75.21;100549.91;4182564;28;20032;-61
2022/11/25 01:00:47;;;;;;;14.88;5.15;;;;;;;6.42;75.43;100544.59;4193296;28;20063;-61
2022/11/25 01:02:50;;;;;;;10.93;4.32;;;;;;;6.42;75.35;100548.91;4192681;28;20052;-61
2022/11/25 01:04:53;;;;;;;7.35;2.70;;;;;;;6.41;75.40;100539.41;4184461;28;20127;-61
2022/11/25 01:06:58;;;;;;;13.15;4.03;;;;;;;6.38;75.26;100545.38;4163120;28;20053;-61
2022/11/25 01:09:03;;;;;;;11.30;3.55;;;;;;;6.40;75.58;100540.25;4196211;28;20036;-61
2022/11/25 01:11:07;;;;;;;;;;;;;;;6.32;75.83;100542.56;4196738;28;20116;-61
2022/11/25 01:13:10;;;;;;;14.13;3.83;;;;;;;6.29;75.87;100555.38;4185708;28;20035;-62
2022/11/25 01:15:12;;;;;;;11.73;3.83;;;;;;;6.34;75.77;100550.34;4182105;28;20040;-61
2022/11/25 01:17:15;;;;;;;8.95;3.40;;;;;;;6.31;75.77;100558.00;4179406;28;20033;-61
2022/11/25 01:19:19;;;;;;;12.10;4.22;;;;;;;6.28;75.62;100562.25;4183091;28;20095;-61
2022/11/25 01:21:24;;;;;;;15.38;4.68;;;;;;;6.32;75.60;100562.34;4189886;28;20154;-61
2022/11/25 01:23:28;;;;;;;;;;;;;;;6.22;75.71;100564.63;4189672;28;20092;-61
2022/11/25 01:25:32;;;;;;;17.23;8.50;;;;;;;6.24;75.75;100572.44;4183222;28;19964;-61
2022/11/25 01:27:35;;;;;;;11.15;5.28;;;;;;;6.25;75.68;100567.31;4184497;28;20068;-62
2022/11/25 01:29:40;;;;;;;13.82;5.32;;;;;;;6.28;75.79;100567.41;4186001;28;20112;-61
2022/11/25 01:31:43;;;;;;;16.27;5.28;;;;;;;6.29;75.97;100573.44;4178751;28;20045;-61
2022/11/25 01:33:47;;;;;;;9.35;4.40;;;;;;;6.29;75.83;100571.75;4178975;28;20410;-61
2022/11/25 01:35:50;;;;;;;14.65;6.03;;;;;;;6.28;75.70;100574.28;4187214;28;20071;-61
2022/11/25 01:37:53;;;;;;;12.82;6.45;;;;;;;6.29;75.62;100570.88;4171690;28;20041;-61
2022/11/25 01:39:59;;;;;;;9.98;4.50;;;;;;;6.35;75.54;100563.34;4185227;28;20053;-61
2022/11/25 01:42:03;;;;;;;16.10;4.90;;;;;;;6.36;75.58;100570.25;4194484;28;20047;-62
2022/11/25 01:44:10;;;;;;;12.30;4.07;;;;;;;6.31;75.76;100569.22;4179846;28;20123;-61
2022/11/25 01:46:24;;;;;;;19.52;8.82;;;;;;;6.31;75.37;100566.66;4189418;28;20086;-61
2022/11/25 01:48:39;;;;;;;12.43;4.28;;;;;;;6.31;75.74;100565.75;4193110;28;20078;-61
2022/11/25 01:50:43;;;;;;;;;;;;;;;6.20;75.28;100568.84;4179663;28;20064;-63
2022/11/25 01:52:50;;;;;;;7.65;3.85;;;;;;;6.30;75.50;100562.31;4182247;28;19920;-61
2022/11/25 01:54:57;;;;;;;9.95;3.53;;;;;;;6.27;75.86;100570.81;4187700;28;20037;-61
2022/11/25 01:57:04;;;;;;;10.15;3.58;;;;;;;6.23;75.92;100563.78;4182499;28;20041;-61
2022/11/25 01:59:07;;;;;;;13.45;3.90;;;;;;;6.24;75.83;100570.72;4191933;28;20037;-61
2022/11/25 02:01:10;;;;;;;7.50;3.17;;;;;;;6.26;76.13;100565.59;4188857;28;20044;-61
2022/11/25 02:03:13;;;;;;;13.27;4.90;;;;;;;6.27;76.06;100570.81;4185123;28;20091;-61
2022/11/25 02:05:21;;;;;;;15.05;5.30;;;;;;;6.30;75.91;100572.63;4190702;28;20036;-61
2022/11/25 02:07:30;;;;;;;12.32;5.10;;;;;;;6.32;76.10;100570.09;4183345;28;20044;-61
2022/11/25 02:09:34;;;;;;;10.10;3.78;;;;;;;6.42;75.48;100567.84;4187957;28;20119;-62
2022/11/25 02:11:41;;;;;;;10.17;3.70;;;;;;;6.38;75.54;100560.84;4170486;28;20044;-61
2022/11/25 02:13:48;;;;;;;8.20;3.15;;;;;;;6.40;76.34;100563.50;4186410;28;20442;-61
2022/11/25 02:15:52;;;;;;;13.43;5.20;;;;;;;6.40;76.32;100563.50;4187283;28;20098;-61
2022/11/25 02:17:54;;;;;;;10.85;3.30;;;;;;;6.39;76.15;100553.97;4186743;28;20079;-61
2022/11/25 02:20:02;;;;;;;9.40;3.00;;;;;;;6.43;76.83;100561.00;4188211;28;20071;-61
2022/11/25 02:22:11;;;;;;;11.43;3.47;;;;;;;6.42;76.10;100570.44;4169732;28;20037;-61
2022/11/25 02:24:22;;;;;;;16.70;5.93;;;;;;;6.46;75.76;100571.44;4186208;28;20036;-61
2022/11/25 02:26:27;;;;;;;21.55;8.25;;;;;;;6.44;76.32;100571.38;4175058;28;20055;-61
2022/11/25 02:28:32;;;;;;;37.45;15.20;;;;;;;6.49;76.39;100573.25;4192749;28;20043;-61
2022/11/25 02:30:38;;;;;;;25.50;10.73;;;;;;;6.47;75.92;100563.72;4186959;28;20435;-62
2022/11/25 02:32:44;;;;;;;13.73;5.57;;;;;;;6.46;76.23;100569.72;4193307;28;20036;-61
2022/11/25 02:34:48;;;;;;;11.88;4.63;;;;;;;6.47;76.75;100557.69;4193016;28;20048;-61
2022/11/25 02:36:51;;;;;;;13.43;4.25;;;;;;;6.51;76.16;100556.94;4186429;28;20623;-61
2022/11/25 02:38:56;;;;;;;12.68;3.78;;;;;;;6.57;75.53;100552.00;4178475;28;20033;-61
2022/11/25 02:41:07;;;;;;;9.82;4.50;;;;;;;6.51;75.79;100554.34;4180443;28;20076;-61
2022/11/25 02:43:12;;;;;;;9.35;3.45;;;;;;;6.45;76.34;100546.41;4182191;28;20070;-61
2022/11/25 02:45:17;;;;;;;11.32;4.63;;;;;;;6.53;75.68;100549.28;4189855;28;20561;-61
2022/11/25 02:47:20;;;;;;;10.98;3.78;;;;;;;6.46;75.87;100549.06;4184676;28;20037;-61
2022/11/25 02:49:23;;;;;;;11.55;3.28;;;;;;;6.43;76.27;100542.94;4184725;28;20064;-62
2022/11/25 02:51:30;;;;;;;10.63;3.35;;;;;;;6.37;76.55;100542.72;4196515;28;20064;-61
2022/11/25 02:53:34;;;;;;;12.88;3.85;;;;;;;6.40;76.57;100556.59;4186049;28;20037;-61
2022/11/25 02:55:37;;;;;;;18.25;6.53;;;;;;;6.45;75.99;100549.00;4167205;28;20049;-61
2022/11/25 02:57:41;;;;;;;14.52;5.80;;;;;;;6.45;76.58;100544.75;4184464;28;20084;-61
2022/11/25 02:59:45;;;;;;;10.77;5.40;;;;;;;6.50;76.43;100541.41;4190155;28;20036;-61
2022/11/25 03:01:49;;;;;;;9.82;3.72;;;;;;;6.49;75.86;100543.13;4197660;28;20532;-61
2022/11/25 03:03:52;;;;;;;11.27;4.88;;;;;;;6.52;76.37;100550.97;4177494;28;20575;-61
2022/11/25 03:05:55;;;;;;;16.00;6.60;;;;;;;6.49;75.96;100550.88;4195432;28;20186;-61
2022/11/25 03:07:59;;;;;;;16.30;6.07;;;;;;;6.49;76.46;100545.69;4181646;28;20132;-61
2022/11/25 03:10:04;;;;;;;12.33;5.63;;;;;;;6.52;75.92;100545.78;4191919;28;20040;-61
2022/11/25 03:12:21;;;;;;;12.80;4.63;;;;;;;6.54;76.06;100554.50;4193679;28;20131;-61
2022/11/25 03:14:28;;;;;;;8.85;3.53;;;;;;;6.56;75.52;100550.22;4190101;28;20033;-61
2022/11/25 03:16:32;;;;;;;11.30;5.07;;;;;;;6.54;75.79;100557.06;4190105;28;20041;-61
2022/11/25 03:18:35;;;;;;;14.82;5.10;;;;;;;6.55;75.82;100552.78;4189225;28;20099;-61
2022/11/25 03:20:38;;;;;;;11.48;3.78;;;;;;;6.52;75.96;100550.09;4198016;28;20494;-61
2022/11/25 03:22:42;;;;;;;23.17;9.77;;;;;;;6.57;75.72;100554.59;4190192;28;20037;-61
2022/11/25 03:24:45;;;;;;;10.45;4.20;;;;;;;6.59;75.19;100552.03;4182217;28;20094;-61
2022/11/25 03:26:47;;;;;;;15.00;4.97;;;;;;;6.51;75.61;100550.91;4184864;28;20045;-61
2022/11/25 03:28:50;;;;;;;16.63;4.13;;;;;;;6.57;75.28;100543.34;4182191;28;20041;-61
2022/11/25 03:30:53;;;;;;;13.32;4.25;;;;;;;6.52;75.77;100545.78;4181164;28;20071;-61
2022/11/25 03:32:57;;;;;;;9.77;3.30;;;;;;;6.51;75.66;100538.00;4191750;28;20043;-61
2022/11/25 03:35:02;;;;;;;12.45;4.35;;;;;;;6.58;75.57;100540.81;4189030;28;20037;-61
2022/11/25 03:37:04;;;;;;;9.60;3.70;;;;;;;6.58;75.48;100535.66;4180973;28;20088;-61
2022/11/25 03:39:08;;;;;;;10.93;4.07;;;;;;;6.53;75.75;100539.81;4187683;28;20055;-61
2022/11/25 03:41:13;;;;;;;8.80;4.53;;;;;;;6.52;75.77;100538.03;4185866;28;20037;-61
2022/11/25 03:43:17;;;;;;;9.65;3.25;;;;;;;6.50;76.16;100534.56;4184652;28;20028;-61
2022/11/25 03:45:20;;;;;;;10.38;4.13;;;;;;;6.48;76.58;100538.78;4192225;28;20055;-61
2022/11/25 03:47:23;;;;;;;10.60;4.25;;;;;;;6.49;76.15;100535.38;4190155;28;20044;-61
2022/11/25 03:49:27;;;;;;;11.80;4.97;;;;;;;6.53;76.46;100542.38;4190600;28;20478;-61
2022/11/25 03:51:30;;;;;;;13.77;4.82;;;;;;;6.56;76.49;100531.28;4194675;28;20131;-61
2022/11/25 03:53:34;;;;;;;13.00;4.55;;;;;;;6.58;76.08;100527.03;4185091;28;20043;-61
2022/11/25 03:55:39;;;;;;;12.85;4.28;;;;;;;6.58;75.35;100532.19;4191568;28;20071;-63
2022/11/25 03:57:42;;;;;;;15.40;3.85;;;;;;;6.60;75.38;100528.84;4188879;28;20120;-61
2022/11/25 03:59:46;;;;;;;10.45;4.30;;;;;;;6.60;75.97;100533.09;4203426;28;20036;-61
2022/11/25 04:01:49;;;;;;;11.45;4.10;;;;;;;6.60;75.36;100539.19;4184092;28;20041;-61
2022/11/25 04:03:53;;;;;;;9.82;3.22;;;;;;;6.66;75.29;100538.50;4192604;28;20041;-61
2022/11/25 04:05:57;;;;;;;9.05;4.32;;;;;;;6.62;75.64;100547.84;4168813;28;20423;-61
2022/11/25 04:08:00;;;;;;;10.15;3.80;;;;;;;6.68;74.86;100541.13;4182006;28;20045;-61
2022/11/25 04:10:03;;;;;;;8.07;3.70;;;;;;;6.64;75.47;100541.03;4188686;28;20032;-61
2022/11/25 04:14:37;;;;;;;11.70;3.67;;;;;;;6.66;74.98;100547.94;4178550;28;20044;-61
2022/11/25 04:16:40;;;;;;;10.00;3.80;;;;;;;6.77;75.17;100542.25;4180717;28;20091;-61
2022/11/25 04:18:43;;;;;;;9.40;3.42;;;;;;;6.72;75.11;100542.97;4186657;28;20057;-61
2022/11/25 04:20:46;;;;;;;10.00;3.65;;;;;;;6.74;75.22;100547.34;4180679;28;20037;-61
2022/11/25 04:22:51;;;;;;;7.65;3.53;;;;;;;6.76;75.29;100539.63;4195326;28;20048;-61
2022/11/25 04:24:54;;;;;;;8.50;3.80;;;;;;;6.73;75.15;100547.28;4187080;28;20402;-61
2022/11/25 04:27:00;;;;;;;8.95;3.38;;;;;;;6.74;75.01;100554.22;4181486;28;20064;-61
2022/11/25 04:29:04;;;;;;;8.10;3.75;;;;;;;6.77;75.62;100547.44;4187812;28;20041;-61
2022/11/25 04:31:07;;;;;;;8.30;2.85;;;;;;;6.74;75.68;100549.94;4196231;28;20040;-61
2022/11/25 04:33:13;;;;;;;13.52;3.58;;;;;;;6.75;76.00;100543.06;4173183;28;20045;-60
2022/11/25 04:35:17;;;;;;;11.32;4.22;;;;;;;6.80;75.87;100547.56;4187347;28;20119;-60
2022/11/25 04:37:25;;;;;;;10.45;3.88;;;;;;;6.77;75.94;100546.56;4189276;28;20071;-60
2022/11/25 04:39:36;;;;;;;10.65;3.45;;;;;;;6.79;75.97;100540.63;4193100;28;20035;-60
2022/11/25 04:41:45;;;;;;;11.95;3.88;;;;;;;6.80;76.33;100536.31;4182363;28;20059;-60
2022/11/25 04:43:49;;;;;;;10.85;4.03;;;;;;;6.87;76.29;100522.75;4185868;28;20040;-60
2022/11/25 04:45:52;;;;;;;8.55;3.72;;;;;;;6.88;75.44;100509.03;4172200;28;20040;-61
2022/11/25 04:48:15;;;;;;;18.95;4.75;;;;;;;6.78;75.74;100502.69;4192002;28;20124;-61
2022/11/25 04:50:20;;;;;;;9.85;3.75;;;;;;;6.70;76.16;100498.13;4185179;28;20036;-61
2022/11/25 04:52:43;;;;;;;11.30;4.38;;;;;;;6.73;75.59;100487.88;4180644;28;20052;-62
2022/11/25 04:54:47;;;;;;;11.13;3.35;;;;;;;6.72;75.29;100487.00;4178166;28;20076;-61
2022/11/25 04:56:50;;;;;;;13.48;4.50;;;;;;;6.70;75.49;100491.25;4169106;28;20045;-62
2022/11/25 05:01:18;;;;;;;7.72;3.30;;;;;;;6.67;75.23;100492.88;4188129;28;20068;-61
2022/11/25 05:03:24;;;;;;;8.57;3.05;;;;;;;6.52;75.89;100508.78;4180281;28;20549;-61
2022/11/25 05:05:27;;;;;;;10.80;4.03;;;;;;;6.28;75.55;100525.25;4178422;28;20029;-62
2022/11/25 05:07:30;;;;;;;9.10;2.70;;;;;;;6.23;75.86;100534.53;4194907;28;20432;-61
2022/11/25 05:09:34;;;;;;;9.95;3.10;;;;;;;6.16;76.48;100543.75;4187712;28;20420;-62
2022/11/25 05:11:51;;;;;;;11.38;3.33;;;;;;;6.21;75.89;100534.47;4186480;28;20135;-61
2022/11/25 05:13:56;;;;;;;6.85;3.25;;;;;;;6.32;76.14;100531.38;4180378;28;20128;-62
2022/11/25 05:15:59;;;;;;;9.05;3.63;;;;;;;6.38;76.08;100531.56;4188328;28;20143;-61
2022/11/25 05:18:03;;;;;;;8.80;3.40;;;;;;;6.39;76.00;100538.47;4165220;28;20048;-62
2022/11/25 05:20:18;;;;;;;13.75;3.38;;;;;;;6.36;76.15;100546.13;4190975;28;20037;-62
2022/11/25 05:22:25;;;;;;;9.68;4.05;;;;;;;6.23;76.07;100553.47;4175432;28;20041;-62
2022/11/25 05:24:28;;;;;;;10.43;4.50;;;;;;;6.22;76.34;100562.06;4186315;28;20045;-61
2022/11/25 05:26:32;;;;;;;13.13;3.70;;;;;;;6.34;76.03;100551.25;4191280;28;20074;-61
2022/11/25 05:28:37;;;;;;;11.73;3.90;;;;;;;6.42;76.21;100557.53;4181992;28;20092;-61
2022/11/25 05:30:39;;;;;;;11.30;4.13;;;;;;;6.44;76.45;100553.31;4190955;28;20043;-61
2022/11/25 05:32:43;;;;;;;8.93;3.40;;;;;;;6.47;75.91;100547.38;4177268;28;20446;-61
2022/11/25 05:34:46;;;;;;;8.93;3.60;;;;;;;6.53;76.43;100550.13;4182424;28;20049;-61
2022/11/25 05:36:50;;;;;;;8.05;3.25;;;;;;;6.57;76.01;100554.59;4176524;28;20049;-60
2022/11/25 05:38:55;;;;;;;11.85;3.55;;;;;;;6.60;76.00;100549.50;4183441;28;20052;-60
2022/11/25 05:41:10;;;;;;;8.98;3.20;;;;;;;6.66;76.56;100554.00;4181022;28;20677;-60
2022/11/25 05:43:15;;;;;;;12.00;3.60;;;;;;;6.68;75.94;100565.25;4179850;28;20044;-60
2022/11/25 05:45:19;;;;;;;8.32;3.58;;;;;;;6.78;75.70;100569.00;4178879;28;20045;-61
2022/11/25 05:47:23;;;;;;;8.90;3.33;;;;;;;6.79;76.09;100566.47;4162573;28;20060;-61
2022/11/25 05:49:26;;;;;;;10.23;3.90;;;;;;;6.83;75.86;100554.50;4179439;28;20091;-61
2022/11/25 05:51:29;;;;;;;10.32;3.50;;;;;;;6.76;76.02;100565.47;4179295;28;20041;-61
2022/11/25 05:53:35;;;;;;;6.00;3.05;;;;;;;6.77;76.03;100573.28;4178394;28;20037;-61
2022/11/25 05:55:38;;;;;;;8.65;3.20;;;;;;;6.77;76.19;100580.16;4186699;28;20091;-61
2022/11/25 05:57:48;;;;;;;14.40;4.25;;;;;;;6.79;75.97;100570.72;4183548;28;20530;-61
2022/11/25 05:59:51;;;;;;;5.60;2.67;;;;;;;6.80;75.81;100580.25;4194799;28;20135;-61
2022/11/25 06:02:00;;;;;;;6.95;2.97;;;;;;;6.87;75.81;100578.75;4187445;28;20068;-61
2022/11/25 06:04:04;;;;;;;12.57;3.08;;;;;;;6.85;76.01;100578.69;4181911;28;20072;-61
2022/11/25 06:06:07;;;;;;;11.88;4.05;;;;;;;6.89;76.35;100588.31;4182377;28;20402;-61
2022/11/25 06:08:11;;;;;;;9.07;3.45;;;;;;;6.89;76.12;100580.56;4181917;28;20124;-61
2022/11/25 06:10:14;;;;;;;9.90;3.83;;;;;;;6.92;76.17;100583.22;4179080;28;20087;-61
2022/11/25 06:12:20;;;;;;;8.30;3.30;;;;;;;6.93;76.08;100587.53;4177415;28;20045;-61
2022/11/25 06:14:24;;;;;;;12.07;3.92;;;;;;;6.90;76.25;100579.72;4191652;28;20048;-61
2022/11/25 06:16:27;;;;;;;10.38;3.85;;;;;;;6.92;76.61;100587.50;4184404;28;20414;-61
2022/11/25 06:18:53;;;;;;;7.53;3.25;;;;;;;6.96;76.12;100584.19;4189637;28;20552;-61
2022/11/25 06:20:57;;;;;;;9.13;3.50;;;;;;;6.89;76.00;100595.16;4188182;28;20142;-61
2022/11/25 06:23:00;;;;;;;10.30;3.67;;;;;;;6.83;76.09;100595.84;4189058;28;20037;-61
2022/11/25 06:25:08;;;;;;;11.43;4.85;;;;;;;6.87;75.31;100605.47;4194893;28;20047;-61
2022/11/25 06:27:13;;;;;;;11.50;3.50;;;;;;;6.85;75.91;100607.13;4188458;28;20033;-61
2022/11/25 06:29:16;;;;;;;9.65;3.85;;;;;;;6.90;75.64;100608.13;4181707;28;20087;-61
2022/11/25 06:31:25;;;;;;;8.60;3.33;;;;;;;6.99;75.95;100605.84;4174424;28;20045;-61
2022/11/25 06:33:37;;;;;;;9.27;3.60;;;;;;;7.05;75.47;100601.69;4190897;28;20040;-61
2022/11/25 06:35:43;;;;;;;12.20;4.07;;;;;;;7.13;75.42;100607.97;4182052;28;20062;-61
2022/11/25 06:37:46;;;;;;;9.77;3.47;;;;;;;7.06;75.58;100611.22;4183645;28;20044;-61
2022/11/25 06:39:49;;;;;;;12.85;4.30;;;;;;;7.04;75.97;100620.59;4190308;28;20486;-60
2022/11/25 06:41:52;;;;;;;7.00;3.55;;;;;;;6.99;76.46;100626.53;4183241;28;20041;-60
2022/11/25 06:43:55;;;;;;;7.65;3.58;;;;;;;7.02;76.35;100630.03;4182277;28;20045;-60
2022/11/25 06:46:03;;;;;;;10.48;4.20;;;;;;;7.00;76.28;100635.16;4165321;28;20045;-60
2022/11/25 06:48:06;;;;;;;13.00;4.78;;;;;;;7.05;76.35;100636.16;4190220;28;20045;-61
2022/11/25 06:50:09;;;;;;;13.20;4.57;;;;;;;7.10;75.67;100636.34;4189625;28;20064;-61
2022/11/25 06:52:13;;;;;;;10.30;4.28;;;;;;;7.04;75.92;100633.53;4194210;28;20039;-60
2022/11/25 06:54:17;;;;;;;12.55;4.07;;;;;;;7.01;76.10;100636.91;4183301;28;20537;-61
2022/11/25 06:56:22;;;;;;;7.25;3.85;;;;;;;6.98;76.46;100642.00;4190567;28;20047;-61
2022/11/25 06:58:25;;;;;;;10.60;4.38;;;;;;;6.91;76.75;100633.16;4191149;28;20541;-61
2022/11/25 07:00:38;;;;;;;7.78;4.13;;;;;;;6.88;76.60;100642.50;4189635;28;20048;-61
2022/11/25 07:02:41;;;;;;;8.50;3.53;;;;;;;6.95;76.73;100649.63;4192591;28;20044;-61
2022/11/25 07:04:50;;;;;;;11.10;6.13;;;;;;;6.98;77.01;100649.75;4188462;28;20041;-61
2022/11/25 07:06:53;;;;;;;15.15;4.70;;;;;;;7.03;76.65;100647.31;4187097;28;20102;-61
2022/11/25 07:08:57;;;;;;;12.15;4.20;;;;;;;6.96;76.44;100647.09;4189563;28;20039;-61
2022/11/25 07:11:06;;;;;;;8.65;3.75;;;;;;;6.89;76.82;100663.25;4184232;28;20465;-61
2022/11/25 07:13:09;;;;;;;12.02;4.53;;;;;;;6.89;76.99;100659.78;4191247;28;20040;-61
2022/11/25 07:15:12;;;;;;;12.15;4.10;;;;;;;6.92;77.27;100654.69;4190061;28;20037;-61
2022/11/25 07:17:15;;;;;;;8.55;3.67;;;;;;;6.94;77.78;100648.75;4194427;28;20052;-60
2022/11/25 07:22:03;;;;;;;8.93;4.38;;;;;;;7.47;81.93;100634.84;4186547;28;20379;-62
2022/11/25 07:24:08;;;;;;;10.60;4.40;;;;;;;7.66;79.43;100631.94;4183555;28;20047;-62
2022/11/25 07:26:13;;;;;;;15.38;5.28;;;;;;;7.59;77.82;100631.75;4186099;28;20047;-62
2022/11/25 07:28:16;;;;;;;10.90;3.85;;;;;;;7.50;77.30;100634.94;4189777;28;20072;-62
2022/11/25 07:30:19;;;;;;;11.40;4.53;;;;;;;7.31;76.49;100638.69;4185031;28;20032;-62
2022/11/25 07:32:42;;;;;;;11.75;4.35;;;;;;;7.21;76.80;100637.50;4195598;28;20441;-62
2022/11/25 07:34:45;;;;;;;13.48;3.95;;;;;;;7.18;76.81;100634.84;4195766;28;20056;-62
2022/11/25 07:36:50;;;;;;;13.45;4.57;;;;;;;7.12;77.55;100651.03;4181568;28;20099;-62
2022/11/25 07:38:53;;;;;;;8.40;4.28;;;;;;;7.08;77.89;100656.06;4182165;28;20045;-62
2022/11/25 07:41:04;;;;;;;11.02;4.32;;;;;;;7.13;77.54;100654.53;4182213;28;20033;-62
2022/11/25 07:43:07;;;;;;;10.85;3.72;;;;;;;7.12;77.27;100655.34;4179883;28;20075;-62
2022/11/25 07:45:10;;;;;;;13.77;5.57;;;;;;;7.11;77.31;100657.06;4181739;28;20044;-62
2022/11/25 07:47:19;;;;;;;11.82;3.90;;;;;;;7.15;77.58;100650.25;4194708;28;20579;-62
2022/11/25 07:49:24;;;;;;;8.40;3.60;;;;;;;7.19;77.55;100651.25;4186436;28;20037;-62
2022/11/25 07:51:29;;;;;;;9.60;3.78;;;;;;;7.14;77.59;100651.09;4188007;28;20114;-62
2022/11/25 07:53:32;;;;;;;15.30;4.05;;;;;;;7.16;77.57;100655.47;4198186;28;20448;-62
2022/11/25 07:55:36;;;;;;;8.38;3.88;;;;;;;7.12;77.49;100666.53;4183447;28;20043;-62
2022/11/25 07:57:40;;;;;;;8.40;4.23;;;;;;;7.15;76.85;100666.66;4190084;28;20037;-62
2022/11/25 07:59:43;;;;;;;7.97;3.70;;;;;;;7.12;76.96;100663.97;4180678;28;20295;-62
2022/11/25 08:01:48;;;;;;;10.10;3.92;;;;;;;7.14;77.27;100659.75;4187822;28;20395;-62
2022/11/25 08:03:52;;;;;;;10.00;3.97;;;;;;;7.15;76.96;100664.09;4189175;28;20445;-62
2022/11/25 08:05:59;;;;;;;11.20;3.92;;;;;;;7.10;77.79;100667.34;4185402;28;20068;-62
2022/11/25 08:08:02;;;;;;;11.27;3.92;;;;;;;7.09;77.53;100676.78;4186390;28;20124;-62
2022/11/25 08:10:06;;;;;;;9.38;4.53;;;;;;;7.14;77.01;100671.75;4186337;28;20106;-62
2022/11/25 08:12:08;;;;;;;8.02;3.40;;;;;;;7.19;76.79;100679.69;4186619;28;20040;-62
2022/11/25 08:14:13;;;;;;;12.98;4.53;;;;;;;7.25;76.86;100675.56;4188949;28;20053;-62
2022/11/25 08:16:18;;;;;;;9.68;4.38;;;;;;;7.20;76.49;100677.16;4185426;28;20494;-62
2022/11/25 08:18:21;;;;;;;8.07;3.47;;;;;;;7.28;76.59;100670.50;4181492;28;20045;-62
2022/11/25 08:20:24;;;;;;;12.45;3.90;;;;;;;7.24;76.94;100672.94;4184405;28;20406;-62
2022/11/25 08:22:28;;;;;;;11.32;4.25;;;;;;;7.24;77.02;100679.00;4183714;28;20033;-63
2022/11/25 08:24:31;;;;;;;9.20;4.32;;;;;;;7.25;77.64;100679.88;4180329;28;20764;-61
2022/11/25 08:26:36;;;;;;;8.65;3.75;;;;;;;7.31;77.18;100685.22;4182064;28;20096;-61
2022/11/25 08:28:41;;;;;;;9.80;4.00;;;;;;;7.33;77.24;100683.59;4193567;28;20411;-61
2022/11/25 08:30:45;;;;;;;10.73;3.95;;;;;;;7.40;77.06;100685.50;4189569;28;20041;-61
2022/11/25 08:32:48;;;;;;;8.43;3.72;;;;;;;7.50;76.25;100678.91;4186349;28;20524;-61
2022/11/25 08:34:52;;;;;;;7.20;3.60;;;;;;;7.43;76.33;100680.47;4183003;28;20045;-61
2022/11/25 08:36:55;;;;;;;11.25;3.88;;;;;;;7.38;76.57;100682.00;4195358;28;20383;-62
2022/11/25 08:39:00;;;;;;;15.15;5.28;;;;;;;7.46;76.20;100674.47;4186100;28;20484;-62
2022/11/25 08:41:03;;;;;;;11.15;4.35;;;;;;;7.42;75.93;100689.03;4189868;28;20042;-61
2022/11/25 08:43:06;;;;;;;9.27;3.83;;;;;;;7.33;76.59;100692.22;4190217;28;20059;-62
2022/11/25 08:45:10;;;;;;;10.95;4.03;;;;;;;7.30;76.77;100699.88;4187256;28;20517;-61
2022/11/25 08:47:14;;;;;;;10.55;4.93;;;;;;;7.30;76.97;100698.97;4189995;28;20558;-61
2022/11/25 08:49:18;;;;;;;8.35;3.85;;;;;;;7.39;76.94;100703.56;4181114;28;20037;-61
2022/11/25 08:51:23;;;;;;;11.38;4.32;;;;;;;7.15;76.93;100704.56;4179991;28;20037;-61
2022/11/25 08:53:26;;;;;;;11.68;4.80;;;;;;;7.24;76.61;100710.03;4176172;28;20239;-61
2022/11/25 08:55:29;;;;;;;13.13;5.05;;;;;;;7.30;76.32;100697.28;4194400;28;20090;-60
2022/11/25 08:57:32;;;;;;;12.63;4.57;;;;;;;7.31;76.67;100695.56;4196791;28;20036;-61
2022/11/25 08:59:35;;;;;;;9.93;4.95;;;;;;;7.40;76.73;100692.41;4193114;28;20498;-61
2022/11/25 09:01:38;;;;;;;12.23;4.97;;;;;;;7.25;76.79;100700.56;4186410;28;20040;-61
2022/11/25 09:03:46;;;;;;;8.48;4.65;;;;;;;7.36;76.59;100700.88;4185865;28;20079;-60
2022/11/25 09:05:50;;;;;;;9.75;4.63;;;;;;;7.35;77.76;100707.78;4168452;28;20053;-67
2022/11/25 09:07:53;;;;;;;10.25;4.68;;;;;;;7.30;76.88;100717.97;4171579;28;20041;-67
2022/11/25 09:09:56;;;;;;;12.32;4.72;;;;;;;7.36;76.95;100712.13;4168729;28;20060;-61
2022/11/25 09:11:59;;;;;;;16.27;4.55;;;;;;;7.46;77.28;100708.09;4163254;28;20124;-61
2022/11/25 09:14:02;;;;;;;11.77;4.30;;;;;;;7.51;76.83;100712.59;4172519;28;20552;-61
2022/11/25 09:16:05;;;;;;;9.95;5.30;;;;;;;7.62;75.99;100709.44;4173599;28;20494;-61
2022/11/25 09:18:10;;;;;;;14.83;5.17;;;;;;;7.60;75.82;100714.56;4213986;28;20040;-61
2022/11/25 09:20:14;;;;;;;9.05;4.07;;;;;;;7.57;76.13;100719.66;4213941;28;20290;-61
2022/11/25 09:22:17;;;;;;;12.82;5.05;;;;;;;7.62;75.58;100728.47;4213967;28;20047;-61
2022/11/25 09:24:20;;;;;;;9.40;4.35;;;;;;;7.55;75.83;100736.84;4213009;28;20040;-61
2022/11/25 09:26:24;;;;;;;13.27;5.13;;;;;;;7.71;75.80;100735.63;4205453;28;20044;-61
2022/11/25 09:28:27;;;;;;;8.05;5.00;;;;;;;7.71;75.76;100733.03;4210620;28;20044;-62
2022/11/25 09:30:31;;;;;;;10.80;5.03;;;;;;;7.71;75.90;100735.63;4202785;28;20036;-62
2022/11/25 09:32:34;;;;;;;10.57;5.13;;;;;;;7.80;75.95;100732.44;4195569;28;20511;-63
2022/11/25 09:34:37;;;;;;;13.90;5.05;;;;;;;7.79;75.60;100741.88;4200033;28;20250;-62
2022/11/25 09:36:41;;;;;;;13.50;4.57;;;;;;;7.71;75.40;100745.06;4208592;28;20078;-62
2022/11/25 09:38:44;;;;;;;13.20;4.85;;;;;;;7.72;75.78;100739.06;4205071;28;20140;-63
2022/11/25 09:40:54;;;;;;;13.63;4.93;;;;;;;7.91;75.25;100741.38;4202623;28;20041;-62
2022/11/25 09:47:59;;;;;;;14.70;5.22;;;;;;;7.83;76.03;100743.75;4204682;28;20044;-62
2022/11/25 09:50:18;;;;;;;12.45;4.40;;;;;;;7.82;75.87;100751.47;4206590;28;20048;-62
2022/11/25 09:52:30;;;;;;;11.60;5.00;;;;;;;7.91;75.45;100756.03;4202005;28;20037;-62
2022/11/25 09:54:39;;;;;;;13.13;5.13;;;;;;;7.86;75.17;100758.50;4199701;28;20066;-62
2022/11/25 09:56:46;;;;;;;10.55;4.18;;;;;;;7.81;75.38;100767.81;4200501;28;20423;-62
2022/11/25 09:58:55;;;;;;;9.00;3.83;;;;;;;7.79;75.35;100777.25;4198691;28;20040;-62
2022/11/25 10:01:00;;;;;;;9.35;3.50;;;;;;;7.65;75.62;100776.81;4200971;28;20064;-62